createdAt,value
2018-11-22T12:18:06.003Z,7.51
2018-11-22T12:20:35.613Z,7.92
2018-11-22T12:23:05.775Z,7.87
2018-11-22T12:25:35.336Z,7.62
2018-11-22T12:28:04.994Z,7.75
2018-11-22T12:30:35.377Z,7.74
2018-11-22T12:33:07.973Z,7.79
2018-11-22T12:35:47.520Z,7.77
2018-11-22T12:38:21.907Z,7.84
2018-11-22T12:40:51.549Z,7.73
2018-11-22T12:43:21.151Z,7.63
2018-11-22T12:45:50.810Z,7.92
2018-11-22T12:48:20.791Z,7.55
2018-11-22T12:50:50.678Z,7.51
2018-11-22T12:53:20.066Z,7.74
2018-11-22T12:55:50.007Z,7.75
2018-11-22T12:58:19.399Z,7.72
2018-11-22T13:00:49.292Z,7.91
2018-11-22T13:03:19.265Z,7.90
2018-11-22T13:05:48.712Z,7.88
2018-11-22T13:08:18.166Z,7.92
2018-11-22T13:10:47.754Z,7.91
2018-11-22T13:13:17.263Z,7.85
2018-11-22T13:15:46.861Z,7.84
2018-11-22T13:18:16.687Z,7.93
2018-11-22T13:20:46.529Z,7.90
2018-11-22T13:23:16.194Z,7.89
2018-11-22T13:25:45.986Z,7.72
2018-11-22T13:28:15.459Z,7.53
2018-11-22T13:30:45.544Z,7.80
2018-11-22T13:33:14.887Z,7.74
2018-11-22T13:35:44.328Z,7.69
2018-11-22T13:38:14.007Z,7.65
2018-11-22T13:40:43.316Z,7.53
2018-11-22T13:43:12.710Z,7.40
2018-11-22T13:45:42.521Z,7.44
2018-11-22T13:48:12.203Z,7.45
2018-11-22T13:50:42.311Z,7.48
2018-11-22T13:53:11.701Z,7.47
2018-11-22T13:55:41.204Z,7.44
2018-11-22T13:58:11.062Z,7.37
2018-11-22T14:00:40.693Z,7.35
2018-11-22T14:03:10.123Z,7.30
2018-11-22T14:05:40.083Z,7.42
2018-11-22T14:08:09.699Z,7.44
2018-11-22T14:10:39.071Z,7.53
2018-11-22T14:13:08.672Z,7.47
2018-11-22T14:15:38.478Z,7.49
2018-11-22T14:18:08.364Z,7.38
2018-11-22T14:20:38.142Z,7.36
2018-11-22T14:25:49.172Z,7.29
2018-11-22T14:28:14.875Z,7.21
2018-11-22T14:30:44.855Z,7.26
2018-11-22T14:33:14.188Z,7.22
2018-11-22T14:35:43.530Z,7.24
2018-11-22T14:38:13.051Z,7.20
2018-11-22T14:40:42.463Z,7.19
2018-11-22T14:43:11.899Z,7.06
2018-11-22T14:45:41.887Z,7.07
2018-11-22T14:48:11.494Z,6.99
2018-11-22T14:50:43.147Z,6.91
2018-11-22T14:53:18.352Z,6.84
2018-11-22T14:55:48.303Z,6.87
2018-11-22T14:58:17.802Z,6.76
2018-11-22T15:00:47.382Z,6.75
2018-11-22T15:03:17.326Z,6.67
2018-11-22T15:05:46.734Z,6.65
2018-11-22T15:08:16.231Z,6.57
2018-11-22T15:10:45.479Z,6.58
2018-11-22T15:13:15.153Z,6.52
2018-11-22T15:15:44.907Z,6.49
2018-11-22T15:18:14.734Z,6.49
2018-11-22T15:20:44.384Z,6.41
2018-11-22T15:23:13.990Z,6.44
2018-11-22T15:25:43.755Z,6.44
2018-11-22T15:28:13.401Z,6.47
2018-11-22T15:30:43.445Z,6.46
2018-11-22T15:33:12.834Z,6.45
2018-11-22T15:35:42.151Z,6.39
2018-11-22T15:38:11.803Z,6.46
2018-11-22T15:40:41.366Z,6.35
2018-11-22T15:43:10.982Z,6.43
2018-11-22T15:45:40.803Z,6.45
2018-11-22T15:48:10.384Z,6.52
2018-11-22T15:50:40.305Z,6.56
2018-11-22T15:53:09.694Z,6.56
2018-11-22T15:55:39.328Z,6.52
2018-11-22T15:58:09.122Z,6.54
2018-11-22T16:00:38.907Z,6.44
2018-11-22T16:03:08.748Z,6.46
2018-11-22T16:05:38.050Z,6.49
2018-11-22T16:08:07.356Z,6.51
2018-11-22T16:10:37.728Z,6.56
2018-11-22T16:13:09.962Z,6.57
2018-11-22T16:15:44.385Z,6.56
2018-11-22T16:18:14.997Z,6.50
2018-11-22T16:20:44.819Z,6.43
2018-11-22T16:23:14.408Z,6.48
2018-11-22T16:25:43.762Z,6.46
2018-11-22T16:28:13.546Z,6.48
2018-11-22T16:30:43.643Z,6.37
2018-11-22T16:33:13.043Z,6.47
2018-11-22T16:35:42.445Z,6.49
2018-11-22T16:38:11.846Z,6.46
2018-11-22T16:40:41.417Z,6.40
2018-11-22T16:43:11.127Z,6.41
2018-11-22T16:45:40.848Z,6.42
2018-11-22T16:48:12.169Z,6.44
2018-11-22T16:50:42.437Z,6.36
2018-11-22T16:53:12.070Z,6.31
2018-11-22T16:55:41.582Z,6.28
2018-11-22T16:58:11.087Z,6.27
2018-11-22T17:00:41.531Z,6.21
2018-11-22T17:03:12.559Z,6.17
2018-11-22T17:05:42.491Z,6.15
2018-11-22T17:08:11.971Z,6.15
2018-11-22T17:10:41.872Z,6.19
2018-11-22T17:13:11.327Z,6.15
2018-11-22T17:15:41.621Z,6.10
2018-11-22T17:18:11.893Z,6.09
2018-11-22T17:20:41.423Z,6.06
2018-11-22T17:23:11.050Z,5.99
2018-11-22T17:25:41.011Z,6.00
2018-11-22T17:28:11.103Z,5.98
2018-11-22T17:30:43.064Z,5.95
2018-11-22T17:33:12.689Z,5.90
2018-11-22T17:35:42.975Z,5.83
2018-11-22T17:38:13.363Z,5.76
2018-11-22T17:40:47.429Z,5.75
2018-11-22T17:43:17.277Z,5.71
2018-11-22T17:45:50.222Z,5.69
2018-11-22T17:48:20.060Z,5.61
2018-11-22T17:50:50.207Z,5.50
2018-11-22T17:53:19.774Z,5.57
2018-11-22T17:55:49.293Z,5.62
2018-11-22T17:58:19.083Z,5.58
2018-11-22T18:00:50.530Z,5.53
2018-11-22T18:03:20.376Z,5.46
2018-11-22T18:05:50.318Z,5.43
2018-11-22T18:08:20.025Z,5.43
2018-11-22T18:10:49.594Z,5.42
2018-11-22T18:13:19.439Z,5.33
2018-11-22T18:15:54.157Z,5.27
2018-11-22T18:18:24.155Z,5.30
2018-11-22T18:20:53.857Z,5.26
2018-11-22T18:23:23.986Z,5.34
2018-11-22T18:25:53.701Z,5.23
2018-11-22T18:28:23.292Z,5.36
2018-11-22T18:30:53.001Z,5.39
2018-11-22T18:33:22.359Z,5.39
2018-11-22T18:35:51.820Z,5.41
2018-11-22T18:38:21.235Z,5.41
2018-11-22T18:40:50.675Z,5.50
2018-11-22T18:43:20.235Z,5.47
2018-11-22T18:45:50.259Z,5.54
2018-11-22T18:48:21.049Z,5.61
2018-11-22T18:50:50.887Z,5.65
2018-11-22T18:53:20.660Z,5.64
2018-11-22T18:55:50.367Z,5.61
2018-11-22T18:58:20.373Z,5.58
2018-11-22T19:00:49.884Z,5.65
2018-11-22T19:03:20.106Z,5.68
2018-11-22T19:05:49.406Z,5.66
2018-11-22T19:08:19.057Z,5.75
2018-11-22T19:10:48.662Z,5.75
2018-11-22T19:13:18.466Z,5.72
2018-11-22T19:15:48.921Z,5.76
2018-11-22T19:18:18.954Z,5.83
2018-11-22T19:20:48.340Z,5.68
2018-11-22T19:23:18.419Z,5.70
2018-11-22T19:25:48.286Z,5.72
2018-11-22T19:28:17.690Z,5.70
2018-11-22T19:30:48.608Z,5.68
2018-11-22T19:33:19.071Z,5.69
2018-11-22T19:35:50.823Z,5.68
2018-11-22T19:38:20.135Z,5.62
2018-11-22T19:40:50.023Z,5.54
2018-11-22T19:43:19.459Z,5.45
2018-11-22T19:45:49.869Z,5.37
2018-11-22T19:48:19.468Z,5.57
2018-11-22T19:50:49.408Z,5.66
2018-11-22T19:53:19.120Z,5.74
2018-11-22T19:55:48.808Z,5.66
2018-11-22T19:58:18.815Z,5.63
2018-11-22T20:00:48.511Z,5.63
2018-11-22T20:03:17.882Z,5.65
2018-11-22T20:05:47.268Z,5.66
2018-11-22T20:08:19.153Z,5.63
2018-11-22T20:10:48.954Z,5.72
2018-11-22T20:13:18.860Z,5.75
2018-11-22T20:15:48.645Z,5.79
2018-11-22T20:18:18.188Z,5.81
2018-11-22T20:20:49.928Z,5.77
2018-11-22T20:23:21.587Z,5.84
2018-11-22T20:25:47.183Z,5.44
2018-11-22T20:28:16.592Z,5.65
2018-11-22T20:30:46.506Z,5.78
2018-11-22T20:33:15.918Z,5.72
2018-11-22T20:35:45.224Z,5.77
2018-11-22T20:38:14.887Z,5.78
2018-11-22T20:40:44.559Z,5.81
2018-11-22T20:43:13.970Z,5.83
2018-11-22T20:45:43.522Z,5.85
2018-11-22T20:48:12.980Z,5.91
2018-11-22T20:50:42.727Z,5.92
2018-11-22T20:53:12.780Z,5.92
2018-11-22T20:55:42.225Z,6.00
2018-11-22T20:58:11.786Z,5.92
2018-11-22T21:00:42.214Z,5.82
2018-11-22T21:03:12.228Z,5.82
2018-11-22T21:05:41.612Z,5.89
2018-11-22T21:08:10.966Z,5.90
2018-11-22T21:10:41.058Z,5.83
2018-11-22T21:13:10.607Z,5.74
2018-11-22T21:15:40.278Z,5.71
2018-11-22T21:18:09.992Z,5.80
2018-11-22T21:20:40.805Z,5.83
2018-11-22T21:23:10.940Z,5.77
2018-11-22T21:25:40.384Z,5.55
2018-11-22T21:28:10.053Z,5.68
2018-11-22T21:30:40.505Z,5.76
2018-11-22T21:33:09.864Z,5.73
2018-11-22T21:35:39.222Z,5.75
2018-11-22T21:38:09.462Z,5.77
2018-11-22T21:40:39.171Z,5.77
2018-11-22T21:43:08.567Z,5.41
2018-11-22T21:45:38.128Z,5.82
2018-11-22T21:48:07.854Z,5.85
2018-11-22T21:50:37.391Z,5.88
2018-11-22T21:53:06.974Z,5.87
2018-11-22T21:55:36.804Z,5.79
2018-11-22T21:58:06.578Z,5.75
2018-11-22T22:00:38.307Z,5.78
2018-11-22T22:03:08.702Z,5.65
2018-11-22T22:05:38.544Z,5.72
2018-11-22T22:08:08.539Z,5.82
2018-11-22T22:10:38.003Z,5.76
2018-11-22T22:13:07.932Z,5.55
2018-11-22T22:15:38.129Z,5.58
2018-11-22T22:18:09.368Z,5.76
2018-11-22T22:20:38.835Z,5.77
2018-11-22T22:23:13.191Z,5.82
2018-11-22T22:25:38.287Z,5.85
2018-11-22T22:28:08.119Z,5.71
2018-11-22T22:30:37.803Z,5.89
2018-11-22T22:33:07.700Z,5.88
2018-11-22T22:35:37.045Z,5.85
2018-11-22T22:38:07.118Z,6.00
2018-11-22T22:40:36.787Z,6.04
2018-11-22T22:43:06.802Z,6.03
2018-11-22T22:45:36.729Z,5.99
2018-11-22T22:48:06.538Z,6.07
2018-11-22T22:50:36.140Z,6.09
2018-11-22T22:53:06.036Z,6.15
2018-11-22T22:55:35.647Z,6.11
2018-11-22T22:58:05.699Z,6.17
2018-11-22T23:00:35.220Z,6.15
2018-11-22T23:03:06.373Z,6.25
2018-11-22T23:05:36.470Z,6.33
2018-11-22T23:08:06.070Z,6.35
2018-11-22T23:10:35.619Z,6.24
2018-11-22T23:13:05.688Z,6.30
2018-11-22T23:15:35.138Z,6.22
2018-11-22T23:18:05.002Z,6.02
2018-11-22T23:20:35.840Z,5.63
2018-11-22T23:23:05.796Z,5.40
2018-11-22T23:25:35.368Z,5.80
2018-11-22T23:28:05.081Z,5.88
2018-11-22T23:30:35.245Z,5.95
2018-11-22T23:33:06.204Z,5.99
2018-11-22T23:35:35.631Z,5.93
2018-11-22T23:38:05.196Z,5.97
2018-11-22T23:40:35.287Z,5.95
2018-11-22T23:43:04.925Z,5.82
2018-11-22T23:45:35.042Z,5.84
2018-11-22T23:48:04.484Z,5.94
2018-11-22T23:50:34.431Z,5.93
2018-11-22T23:53:04.676Z,5.92
2018-11-22T23:55:34.222Z,5.85
2018-11-22T23:58:03.705Z,5.89
